SAS95K EKCH-LFPG
Flight info
| Callsign | SAS95K |
|---|---|
| Flight time | N/A |
| Altitude | 36000 |
| Route | LANGO DCT RAXLU DCT EKERN DCT EMMUN DCT BUB DCT NILEM/N0445F370 DCT MOPIL |
| Aircraft | A320/M-SDE3FGHIRWY/LB1 |
Departure
| Time | 2026-05-04 17:56 |
|---|---|
| Airport | Copenhagen Kastrup Airport (EKCH) |
Arrival
| Time | N/A |
|---|---|
| Airport | Charles de Gaulle International Airport (LFPG) |
| Time | Latitude | Longitude | Altitude | Speed | Heading |
|---|---|---|---|---|---|
| 2026-05-04 16:55 | 55.62781 | 12.64158 | 17 ft | 0 kts | 123° |
| 2026-05-04 17:40 | 55.62785 | 12.64149 | 17 ft | 4 kts | 123° |
| 2026-05-04 17:40 | 55.62800 | 12.64109 | 18 ft | 4 kts | 123° |
| 2026-05-04 17:41 | 55.62812 | 12.64076 | 18 ft | 4 kts | 118° |
| 2026-05-04 17:41 | 55.62819 | 12.64034 | 17 ft | 4 kts | 77° |
| 2026-05-04 17:41 | 55.62806 | 12.63997 | 17 ft | 4 kts | 37° |
| 2026-05-04 17:41 | 55.62789 | 12.63976 | 18 ft | 4 kts | 44° |
| 2026-05-04 17:42 | 55.62777 | 12.63939 | 17 ft | 4 kts | 90° |
| 2026-05-04 17:42 | 55.62782 | 12.63899 | 17 ft | 4 kts | 115° |
| 2026-05-04 17:42 | 55.62791 | 12.63867 | 17 ft | 0 kts | 115° |
| 2026-05-04 17:48 | 55.62787 | 12.63879 | 17 ft | 2 kts | 115° |
| 2026-05-04 17:49 | 55.62777 | 12.63919 | 17 ft | 5 kts | 115° |
| 2026-05-04 17:49 | 55.62747 | 12.63931 | 19 ft | 5 kts | 200° |
| 2026-05-04 17:49 | 55.62710 | 12.63887 | 17 ft | 7 kts | 214° |
| 2026-05-04 17:49 | 55.62658 | 12.63853 | 17 ft | 9 kts | 168° |
| 2026-05-04 17:50 | 55.62617 | 12.63942 | 19 ft | 10 kts | 122° |
| 2026-05-04 17:50 | 55.62575 | 12.64057 | 17 ft | 12 kts | 123° |
| 2026-05-04 17:50 | 55.62526 | 12.64191 | 18 ft | 14 kts | 123° |
| 2026-05-04 17:50 | 55.62467 | 12.64340 | 19 ft | 16 kts | 129° |
| 2026-05-04 17:51 | 55.62386 | 12.64446 | 17 ft | 13 kts | 176° |
| 2026-05-04 17:51 | 55.62363 | 12.64440 | 17 ft | 0 kts | 195° |
| 2026-05-04 17:51 | 55.62362 | 12.64440 | 17 ft | 0 kts | 195° |
| 2026-05-04 17:51 | 55.62357 | 12.64438 | 17 ft | 0 kts | 196° |
| 2026-05-04 17:52 | 55.62351 | 12.64434 | 17 ft | 3 kts | 197° |
| 2026-05-04 17:52 | 55.62319 | 12.64418 | 18 ft | 6 kts | 194° |
| 2026-05-04 17:52 | 55.62262 | 12.64391 | 16 ft | 11 kts | 195° |
| 2026-05-04 17:52 | 55.62178 | 12.64328 | 16 ft | 15 kts | 205° |
| 2026-05-04 17:53 | 55.62080 | 12.64246 | 17 ft | 17 kts | 206° |
| 2026-05-04 17:53 | 55.61963 | 12.64150 | 17 ft | 20 kts | 206° |
| 2026-05-04 17:53 | 55.61859 | 12.64067 | 17 ft | 8 kts | 189° |
| 2026-05-04 17:53 | 55.61804 | 12.64074 | 17 ft | 9 kts | 175° |
| 2026-05-04 17:54 | 55.61731 | 12.64083 | 19 ft | 12 kts | 176° |
| 2026-05-04 17:54 | 55.61658 | 12.64088 | 21 ft | 8 kts | 182° |
| 2026-05-04 17:54 | 55.61606 | 12.64047 | 21 ft | 10 kts | 219° |
| 2026-05-04 17:54 | 55.61568 | 12.63986 | 20 ft | 0 kts | 221° |
| 2026-05-04 17:55 | 55.61555 | 12.63967 | 20 ft | 5 kts | 221° |
| 2026-05-04 17:55 | 55.61507 | 12.63891 | 19 ft | 20 kts | 222° |
| 2026-05-04 17:55 | 55.61210 | 12.63431 | 21 ft | 90 kts | 220° |
| 2026-05-04 17:56 | 55.60591 | 12.62473 | 21 ft | 143 kts | 221° |
| 2026-05-04 17:56 | 55.59739 | 12.61163 | 154 ft | 171 kts | 223° |
| 2026-05-04 17:56 | 55.58847 | 12.59814 | 818 ft | 168 kts | 222° |
| 2026-05-04 17:56 | 55.57968 | 12.58505 | 1518 ft | 166 kts | 224° |
| 2026-05-04 17:57 | 55.57095 | 12.57079 | 1997 ft | 178 kts | 225° |
| 2026-05-04 17:57 | 55.56206 | 12.55391 | 2257 ft | 198 kts | 236° |
| 2026-05-04 17:57 | 55.55462 | 12.53168 | 2528 ft | 223 kts | 242° |
| 2026-05-04 17:57 | 55.54667 | 12.50653 | 2965 ft | 246 kts | 242° |
| 2026-05-04 17:58 | 55.53788 | 12.47983 | 3721 ft | 254 kts | 242° |
| 2026-05-04 17:58 | 55.52875 | 12.45295 | 4681 ft | 257 kts | 241° |
| 2026-05-04 17:58 | 55.51942 | 12.42595 | 5611 ft | 258 kts | 240° |
| 2026-05-04 17:58 | 55.51000 | 12.39902 | 6537 ft | 259 kts | 240° |
| 2026-05-04 17:59 | 55.50046 | 12.37193 | 7399 ft | 261 kts | 240° |
| 2026-05-04 17:59 | 55.49085 | 12.34467 | 8250 ft | 263 kts | 240° |
| 2026-05-04 17:59 | 55.47136 | 12.28932 | 9919 ft | 269 kts | 240° |
| 2026-05-04 18:00 | 55.46132 | 12.26077 | 10376 ft | 284 kts | 240° |
| 2026-05-04 18:00 | 55.45048 | 12.22991 | 10576 ft | 306 kts | 240° |
| 2026-05-04 18:00 | 55.43912 | 12.19767 | 11088 ft | 315 kts | 240° |
| 2026-05-04 18:00 | 55.42757 | 12.16512 | 11773 ft | 318 kts | 240° |
| 2026-05-04 18:01 | 55.41577 | 12.13200 | 12486 ft | 320 kts | 240° |
| 2026-05-04 18:01 | 55.40387 | 12.09868 | 13207 ft | 323 kts | 240° |
| 2026-05-04 18:01 | 55.39171 | 12.06467 | 13911 ft | 325 kts | 240° |
| 2026-05-04 18:02 | 55.36764 | 11.99720 | 15145 ft | 330 kts | 240° |
| 2026-05-04 18:02 | 55.35525 | 11.96248 | 15755 ft | 333 kts | 240° |
| 2026-05-04 18:02 | 55.34304 | 11.92822 | 16360 ft | 336 kts | 240° |
| 2026-05-04 18:02 | 55.33063 | 11.89346 | 16955 ft | 338 kts | 240° |
| 2026-05-04 18:03 | 55.31801 | 11.85823 | 17562 ft | 341 kts | 240° |
| 2026-05-04 18:03 | 55.30531 | 11.82286 | 18176 ft | 344 kts | 240° |
| 2026-05-04 18:03 | 55.29245 | 11.78719 | 18705 ft | 347 kts | 240° |
| 2026-05-04 18:03 | 55.27947 | 11.75127 | 18906 ft | 349 kts | 240° |
| 2026-05-04 18:04 | 55.26646 | 11.71534 | 18957 ft | 349 kts | 240° |
| 2026-05-04 18:04 | 55.25348 | 11.67943 | 18961 ft | 349 kts | 240° |
| 2026-05-04 18:04 | 55.22729 | 11.60773 | 18948 ft | 349 kts | 239° |
| 2026-05-04 18:05 | 55.21410 | 11.57199 | 18963 ft | 351 kts | 239° |
| 2026-05-04 18:05 | 55.20078 | 11.53607 | 18975 ft | 352 kts | 239° |
| 2026-05-04 18:05 | 55.18735 | 11.49991 | 19492 ft | 355 kts | 239° |
| 2026-05-04 18:05 | 55.17386 | 11.46362 | 20071 ft | 358 kts | 239° |
| 2026-05-04 18:06 | 55.14650 | 11.39000 | 21154 ft | 364 kts | 239° |
| 2026-05-04 18:06 | 55.13282 | 11.35329 | 21675 ft | 367 kts | 239° |
| 2026-05-04 18:06 | 55.11884 | 11.31581 | 22179 ft | 370 kts | 239° |
| 2026-05-04 18:07 | 55.10473 | 11.27806 | 22698 ft | 373 kts | 239° |
| 2026-05-04 18:07 | 55.09049 | 11.24005 | 23204 ft | 376 kts | 238° |
| 2026-05-04 18:07 | 55.07611 | 11.20177 | 23671 ft | 379 kts | 238° |
| 2026-05-04 18:07 | 55.06160 | 11.16323 | 24094 ft | 381 kts | 238° |
| 2026-05-04 18:08 | 55.04705 | 11.12452 | 24516 ft | 383 kts | 238° |
| 2026-05-04 18:08 | 55.03238 | 11.08557 | 24935 ft | 385 kts | 238° |
| 2026-05-04 18:08 | 55.01767 | 11.04652 | 25323 ft | 386 kts | 239° |
| 2026-05-04 18:08 | 55.00303 | 11.00770 | 25929 ft | 381 kts | 239° |
| 2026-05-04 18:09 | 54.97392 | 10.93082 | 26840 ft | 382 kts | 238° |
| 2026-05-04 18:09 | 54.94432 | 10.85297 | 27494 ft | 388 kts | 238° |
| 2026-05-04 18:10 | 54.92927 | 10.81382 | 27880 ft | 390 kts | 238° |
| 2026-05-04 18:10 | 54.91405 | 10.77476 | 28282 ft | 391 kts | 238° |
| 2026-05-04 18:10 | 54.89867 | 10.73557 | 28674 ft | 392 kts | 238° |
| 2026-05-04 18:10 | 54.88323 | 10.69646 | 29055 ft | 394 kts | 238° |
| 2026-05-04 18:11 | 54.86771 | 10.65724 | 29442 ft | 395 kts | 238° |
| 2026-05-04 18:11 | 54.85212 | 10.61782 | 29810 ft | 396 kts | 238° |
| 2026-05-04 18:11 | 54.83648 | 10.57824 | 30155 ft | 398 kts | 238° |
| 2026-05-04 18:11 | 54.82083 | 10.53863 | 30508 ft | 398 kts | 238° |
| 2026-05-04 18:12 | 54.80524 | 10.49915 | 30861 ft | 397 kts | 238° |
| 2026-05-04 18:12 | 54.78978 | 10.46011 | 31527 ft | 389 kts | 238° |
| 2026-05-04 18:12 | 54.77456 | 10.42178 | 32035 ft | 386 kts | 238° |
| 2026-05-04 18:12 | 54.75931 | 10.38344 | 32400 ft | 387 kts | 238° |
| 2026-05-04 18:13 | 54.74400 | 10.34498 | 32727 ft | 388 kts | 238° |
| 2026-05-04 18:13 | 54.72864 | 10.30650 | 33047 ft | 389 kts | 238° |
| 2026-05-04 18:13 | 54.69486 | 10.23281 | 33722 ft | 394 kts | 231° |
| 2026-05-04 18:14 | 54.67673 | 10.19728 | 34048 ft | 395 kts | 231° |
| 2026-05-04 18:14 | 54.65853 | 10.16160 | 34320 ft | 396 kts | 231° |
| 2026-05-04 18:14 | 54.64032 | 10.12592 | 34589 ft | 397 kts | 231° |
| 2026-05-04 18:15 | 54.60370 | 10.05422 | 35118 ft | 398 kts | 231° |
| 2026-05-04 18:15 | 54.56703 | 9.98257 | 35667 ft | 398 kts | 231° |
| 2026-05-04 18:15 | 54.54887 | 9.94726 | 35907 ft | 399 kts | 231° |
| 2026-05-04 18:16 | 54.53012 | 9.91097 | 35990 ft | 403 kts | 231° |
| 2026-05-04 18:16 | 54.49230 | 9.83978 | 36005 ft | 407 kts | 228° |
| 2026-05-04 18:17 | 54.43044 | 9.73901 | 36004 ft | 409 kts | 225° |
| 2026-05-04 18:18 | 54.36783 | 9.63933 | 35980 ft | 409 kts | 226° |
| 2026-05-04 18:18 | 54.32654 | 9.57231 | 35967 ft | 409 kts | 226° |
| 2026-05-04 18:19 | 54.26447 | 9.47181 | 35982 ft | 410 kts | 226° |
| 2026-05-04 18:19 | 54.22298 | 9.40504 | 35983 ft | 410 kts | 226° |
| 2026-05-04 18:20 | 54.18134 | 9.33839 | 36011 ft | 410 kts | 226° |
| 2026-05-04 18:20 | 54.13970 | 9.27194 | 35987 ft | 410 kts | 226° |
| 2026-05-04 18:21 | 54.09802 | 9.20559 | 36006 ft | 410 kts | 226° |
| 2026-05-04 18:21 | 54.05634 | 9.13937 | 36011 ft | 410 kts | 226° |
| 2026-05-04 18:22 | 54.01473 | 9.07324 | 36020 ft | 409 kts | 226° |
| 2026-05-04 18:22 | 53.97305 | 9.00733 | 36016 ft | 409 kts | 226° |
| 2026-05-04 18:23 | 53.93129 | 8.94155 | 36032 ft | 409 kts | 226° |
| 2026-05-04 18:23 | 53.88951 | 8.87586 | 36008 ft | 409 kts | 225° |
| 2026-05-04 18:24 | 53.84795 | 8.81082 | 36014 ft | 409 kts | 225° |
| 2026-05-04 18:24 | 53.80615 | 8.74547 | 36017 ft | 409 kts | 225° |
| 2026-05-04 18:25 | 53.76429 | 8.68028 | 36018 ft | 409 kts | 225° |
| 2026-05-04 18:25 | 53.72234 | 8.61519 | 36020 ft | 409 kts | 225° |
| 2026-05-04 18:26 | 53.68044 | 8.55018 | 36003 ft | 409 kts | 225° |
| 2026-05-04 18:26 | 53.63847 | 8.48541 | 36012 ft | 409 kts | 225° |
| 2026-05-04 18:27 | 53.59646 | 8.42079 | 36019 ft | 409 kts | 225° |
| 2026-05-04 18:27 | 53.55449 | 8.35620 | 36019 ft | 409 kts | 225° |
| 2026-05-04 18:28 | 53.51246 | 8.29181 | 36027 ft | 409 kts | 225° |
| 2026-05-04 18:28 | 53.47039 | 8.22750 | 36026 ft | 409 kts | 225° |
| 2026-05-04 18:29 | 53.42834 | 8.16332 | 36012 ft | 408 kts | 224° |
| 2026-05-04 18:29 | 53.38625 | 8.09954 | 36020 ft | 408 kts | 224° |
| 2026-05-04 18:30 | 53.33023 | 8.01497 | 36027 ft | 407 kts | 224° |
| 2026-05-04 18:31 | 53.28825 | 7.95147 | 36018 ft | 407 kts | 224° |
| 2026-05-04 18:31 | 53.24624 | 7.88808 | 36017 ft | 407 kts | 224° |
| 2026-05-04 18:32 | 53.20412 | 7.82494 | 36017 ft | 407 kts | 224° |
| 2026-05-04 18:32 | 53.16197 | 7.76201 | 36017 ft | 407 kts | 224° |
| 2026-05-04 18:33 | 53.11982 | 7.69912 | 36010 ft | 407 kts | 224° |
| 2026-05-04 18:33 | 53.07766 | 7.63629 | 36027 ft | 407 kts | 224° |
| 2026-05-04 18:34 | 53.03570 | 7.57393 | 36014 ft | 407 kts | 224° |
| 2026-05-04 18:34 | 52.99349 | 7.51140 | 36002 ft | 407 kts | 223° |
| 2026-05-04 18:35 | 52.95126 | 7.44906 | 36013 ft | 405 kts | 223° |
| 2026-05-04 18:35 | 52.90915 | 7.38709 | 36016 ft | 405 kts | 223° |
| 2026-05-04 18:36 | 52.86702 | 7.32527 | 36005 ft | 404 kts | 223° |
| 2026-05-04 18:36 | 52.82496 | 7.26367 | 35999 ft | 404 kts | 223° |
| 2026-05-04 18:37 | 52.78284 | 7.20221 | 35991 ft | 404 kts | 222° |
| 2026-05-04 18:37 | 52.74077 | 7.14096 | 35996 ft | 403 kts | 222° |
| 2026-05-04 18:38 | 52.69870 | 7.07974 | 35992 ft | 403 kts | 222° |
| 2026-05-04 18:38 | 52.65659 | 7.01872 | 36009 ft | 403 kts | 222° |
| 2026-05-04 18:39 | 52.61490 | 6.95702 | 36002 ft | 403 kts | 223° |
| 2026-05-04 18:39 | 52.57351 | 6.89485 | 35997 ft | 403 kts | 223° |
| 2026-05-04 18:40 | 52.53194 | 6.83276 | 35980 ft | 403 kts | 222° |
| 2026-05-04 18:40 | 52.49023 | 6.77109 | 35991 ft | 404 kts | 222° |
| 2026-05-04 18:41 | 52.44859 | 6.70996 | 35988 ft | 404 kts | 222° |
| 2026-05-04 18:41 | 52.40657 | 6.64829 | 35994 ft | 404 kts | 222° |
| 2026-05-04 18:42 | 52.36481 | 6.58700 | 35995 ft | 404 kts | 222° |
| 2026-05-04 18:42 | 52.32289 | 6.52553 | 35973 ft | 405 kts | 221° |
| 2026-05-04 18:43 | 52.28095 | 6.46431 | 35975 ft | 405 kts | 221° |
| 2026-05-04 18:43 | 52.23888 | 6.40295 | 35994 ft | 406 kts | 221° |
| 2026-05-04 18:44 | 52.19670 | 6.34169 | 35987 ft | 406 kts | 221° |
| 2026-05-04 18:44 | 52.15436 | 6.28048 | 35987 ft | 407 kts | 221° |
| 2026-05-04 18:45 | 52.11206 | 6.21952 | 35980 ft | 407 kts | 221° |
| 2026-05-04 18:45 | 52.06951 | 6.15848 | 35981 ft | 408 kts | 221° |
| 2026-05-04 18:46 | 52.02695 | 6.09736 | 35976 ft | 409 kts | 221° |
| 2026-05-04 18:46 | 51.98433 | 6.03615 | 35984 ft | 409 kts | 221° |
| 2026-05-04 18:47 | 51.94170 | 5.97518 | 35984 ft | 409 kts | 221° |
| 2026-05-04 18:47 | 51.89894 | 5.91428 | 35985 ft | 409 kts | 221° |
| 2026-05-04 18:48 | 51.85611 | 5.85352 | 35985 ft | 409 kts | 221° |
| 2026-05-04 18:48 | 51.81335 | 5.79271 | 35993 ft | 410 kts | 221° |
| 2026-05-04 18:49 | 51.77044 | 5.73192 | 35989 ft | 411 kts | 220° |
| 2026-05-04 18:49 | 51.72739 | 5.67132 | 35988 ft | 411 kts | 220° |
| 2026-05-04 18:50 | 51.68413 | 5.61055 | 35981 ft | 411 kts | 220° |
| 2026-05-04 18:50 | 51.64099 | 5.55005 | 35974 ft | 411 kts | 220° |
| 2026-05-04 18:51 | 51.59814 | 5.49006 | 35974 ft | 411 kts | 220° |
| 2026-05-04 18:51 | 51.55493 | 5.42979 | 35968 ft | 411 kts | 220° |
| 2026-05-04 18:52 | 51.51173 | 5.36976 | 35966 ft | 411 kts | 220° |
| 2026-05-04 18:52 | 51.46852 | 5.30979 | 35965 ft | 410 kts | 220° |
| 2026-05-04 18:53 | 51.42535 | 5.24998 | 35975 ft | 411 kts | 220° |
| 2026-05-04 18:53 | 51.38195 | 5.19013 | 35969 ft | 412 kts | 220° |
| 2026-05-04 18:54 | 51.33854 | 5.13030 | 35968 ft | 413 kts | 220° |
| 2026-05-04 18:54 | 51.29503 | 5.07043 | 35982 ft | 413 kts | 220° |
| 2026-05-04 18:55 | 51.25136 | 5.01067 | 35977 ft | 413 kts | 220° |
| 2026-05-04 18:55 | 51.18578 | 4.92116 | 35975 ft | 414 kts | 220° |
| 2026-05-04 18:56 | 51.14206 | 4.86165 | 35980 ft | 414 kts | 220° |
| 2026-05-04 18:56 | 51.09856 | 4.80260 | 35977 ft | 414 kts | 220° |
| 2026-05-04 18:57 | 51.05443 | 4.74277 | 35983 ft | 414 kts | 220° |
| 2026-05-04 18:57 | 51.01049 | 4.68360 | 35990 ft | 415 kts | 219° |
| 2026-05-04 18:58 | 50.96673 | 4.62476 | 35991 ft | 415 kts | 219° |
| 2026-05-04 18:58 | 50.92277 | 4.56577 | 35987 ft | 416 kts | 219° |
| 2026-05-04 18:59 | 50.87374 | 4.51799 | 35988 ft | 415 kts | 204° |
| 2026-05-04 18:59 | 50.82080 | 4.48102 | 35990 ft | 416 kts | 204° |
| 2026-05-04 19:00 | 50.76790 | 4.44405 | 35984 ft | 416 kts | 204° |
| 2026-05-04 19:00 | 50.71492 | 4.40715 | 35992 ft | 416 kts | 204° |
| 2026-05-04 19:01 | 50.66197 | 4.37026 | 35991 ft | 416 kts | 204° |
| 2026-05-04 19:01 | 50.63556 | 4.35187 | 35667 ft | 416 kts | 204° |
| 2026-05-04 19:01 | 50.60906 | 4.33347 | 34617 ft | 415 kts | 204° |
| 2026-05-04 19:02 | 50.58267 | 4.31521 | 33540 ft | 412 kts | 204° |
| 2026-05-04 19:02 | 50.55704 | 4.29753 | 33262 ft | 391 kts | 204° |
| 2026-05-04 19:02 | 50.53265 | 4.28070 | 32850 ft | 375 kts | 204° |
| 2026-05-04 19:02 | 50.50917 | 4.26449 | 32423 ft | 362 kts | 204° |
| 2026-05-04 19:03 | 50.48616 | 4.24863 | 32002 ft | 362 kts | 204° |
| 2026-05-04 19:03 | 50.46304 | 4.23276 | 31576 ft | 363 kts | 204° |
| 2026-05-04 19:03 | 50.43991 | 4.21694 | 31148 ft | 363 kts | 204° |
| 2026-05-04 19:03 | 50.41676 | 4.20107 | 30711 ft | 363 kts | 204° |
| 2026-05-04 19:04 | 50.39364 | 4.18519 | 30283 ft | 362 kts | 204° |
| 2026-05-04 19:04 | 50.37059 | 4.16936 | 29831 ft | 362 kts | 204° |
| 2026-05-04 19:04 | 50.34758 | 4.15363 | 29386 ft | 360 kts | 204° |
| 2026-05-04 19:04 | 50.32468 | 4.13801 | 28961 ft | 358 kts | 204° |
| 2026-05-04 19:05 | 50.30142 | 4.12479 | 28530 ft | 358 kts | 195° |
| 2026-05-04 19:05 | 50.27681 | 4.11760 | 28091 ft | 358 kts | 186° |
| 2026-05-04 19:05 | 50.25193 | 4.11543 | 27667 ft | 357 kts | 184° |
| 2026-05-04 19:05 | 50.22716 | 4.11365 | 27252 ft | 356 kts | 184° |
| 2026-05-04 19:06 | 50.20239 | 4.11184 | 26834 ft | 355 kts | 184° |
| 2026-05-04 19:06 | 50.17779 | 4.11003 | 26439 ft | 353 kts | 184° |
| 2026-05-04 19:06 | 50.15330 | 4.10820 | 26042 ft | 352 kts | 184° |
| 2026-05-04 19:06 | 50.12890 | 4.10639 | 25663 ft | 352 kts | 184° |
| 2026-05-04 19:07 | 50.10393 | 4.10456 | 25282 ft | 367 kts | 184° |
| 2026-05-04 19:07 | 50.07827 | 4.10231 | 24988 ft | 368 kts | 188° |
| 2026-05-04 19:07 | 50.05360 | 4.09186 | 24792 ft | 369 kts | 205° |
| 2026-05-04 19:07 | 50.03049 | 4.07449 | 24551 ft | 369 kts | 206° |
| 2026-05-04 19:08 | 50.00752 | 4.05682 | 24314 ft | 369 kts | 206° |
| 2026-05-04 19:08 | 49.98454 | 4.03903 | 24082 ft | 369 kts | 206° |
| 2026-05-04 19:08 | 49.96161 | 4.02127 | 23844 ft | 368 kts | 206° |
| 2026-05-04 19:08 | 49.93867 | 4.00356 | 23516 ft | 367 kts | 206° |
| 2026-05-04 19:09 | 49.91577 | 3.98593 | 23156 ft | 367 kts | 206° |
| 2026-05-04 19:09 | 49.89296 | 3.96839 | 22800 ft | 365 kts | 206° |
| 2026-05-04 19:09 | 49.87029 | 3.95099 | 22448 ft | 363 kts | 206° |
| 2026-05-04 19:09 | 49.84770 | 3.93369 | 22103 ft | 361 kts | 206° |
| 2026-05-04 19:10 | 49.82547 | 3.91672 | 21759 ft | 360 kts | 206° |
| 2026-05-04 19:10 | 49.80308 | 3.89967 | 21420 ft | 358 kts | 206° |
| 2026-05-04 19:10 | 49.78075 | 3.88265 | 21087 ft | 357 kts | 206° |
| 2026-05-04 19:10 | 49.75855 | 3.86575 | 20753 ft | 355 kts | 206° |
| 2026-05-04 19:11 | 49.73646 | 3.84888 | 20424 ft | 354 kts | 206° |
| 2026-05-04 19:11 | 49.71444 | 3.83207 | 20099 ft | 352 kts | 206° |
| 2026-05-04 19:11 | 49.69247 | 3.81540 | 19777 ft | 351 kts | 206° |
| 2026-05-04 19:11 | 49.67056 | 3.79887 | 19455 ft | 348 kts | 206° |
| 2026-05-04 19:12 | 49.64894 | 3.78258 | 19146 ft | 345 kts | 206° |
| 2026-05-04 19:12 | 49.60617 | 3.75018 | 18520 ft | 342 kts | 206° |
| 2026-05-04 19:12 | 49.58480 | 3.73396 | 18210 ft | 340 kts | 206° |
| 2026-05-04 19:13 | 49.56358 | 3.71790 | 17864 ft | 339 kts | 206° |
| 2026-05-04 19:13 | 49.54241 | 3.70192 | 17513 ft | 338 kts | 206° |
| 2026-05-04 19:13 | 49.52130 | 3.68599 | 17173 ft | 337 kts | 206° |
| 2026-05-04 19:13 | 49.50029 | 3.67016 | 16826 ft | 336 kts | 206° |
| 2026-05-04 19:14 | 49.47940 | 3.65425 | 16499 ft | 335 kts | 208° |
| 2026-05-04 19:14 | 49.46074 | 3.63327 | 16154 ft | 332 kts | 226° |
| 2026-05-04 19:14 | 49.44725 | 3.60470 | 15822 ft | 330 kts | 243° |
| 2026-05-04 19:14 | 49.43981 | 3.57148 | 15501 ft | 330 kts | 255° |
| 2026-05-04 19:15 | 49.43398 | 3.53725 | 15183 ft | 332 kts | 255° |
| 2026-05-04 19:15 | 49.42813 | 3.50295 | 14950 ft | 332 kts | 255° |
| 2026-05-04 19:15 | 49.42226 | 3.46861 | 14943 ft | 333 kts | 255° |
| 2026-05-04 19:15 | 49.41498 | 3.43482 | 14946 ft | 333 kts | 248° |
| 2026-05-04 19:16 | 49.40622 | 3.40196 | 14943 ft | 334 kts | 248° |
| 2026-05-04 19:16 | 49.39739 | 3.36898 | 14943 ft | 334 kts | 248° |
| 2026-05-04 19:16 | 49.38855 | 3.33607 | 14943 ft | 334 kts | 248° |
| 2026-05-04 19:16 | 49.37971 | 3.30310 | 14943 ft | 334 kts | 248° |
| 2026-05-04 19:17 | 49.37090 | 3.27019 | 14942 ft | 334 kts | 248° |
| 2026-05-04 19:17 | 49.36209 | 3.23729 | 14943 ft | 334 kts | 248° |
| 2026-05-04 19:17 | 49.35325 | 3.20438 | 14787 ft | 335 kts | 248° |
| 2026-05-04 19:17 | 49.34441 | 3.17155 | 14469 ft | 332 kts | 247° |
| 2026-05-04 19:18 | 49.33857 | 3.14991 | 14256 ft | 331 kts | 247° |
| 2026-05-04 19:18 | 49.32978 | 3.11740 | 13943 ft | 330 kts | 247° |
| 2026-05-04 19:18 | 49.32101 | 3.08495 | 13630 ft | 330 kts | 247° |
| 2026-05-04 19:18 | 49.31223 | 3.05250 | 13282 ft | 329 kts | 247° |
| 2026-05-04 19:19 | 49.30348 | 3.02025 | 12942 ft | 327 kts | 247° |
| 2026-05-04 19:19 | 49.29472 | 2.98808 | 12599 ft | 326 kts | 247° |
| 2026-05-04 19:19 | 49.28605 | 2.95617 | 12271 ft | 324 kts | 247° |
| 2026-05-04 19:19 | 49.27740 | 2.92437 | 11934 ft | 323 kts | 247° |
| 2026-05-04 19:20 | 49.26878 | 2.89275 | 11602 ft | 321 kts | 247° |
| 2026-05-04 19:20 | 49.26016 | 2.86123 | 11272 ft | 319 kts | 247° |
| 2026-05-04 19:20 | 49.25163 | 2.83010 | 10988 ft | 314 kts | 247° |
| 2026-05-04 19:20 | 49.24333 | 2.79981 | 10940 ft | 302 kts | 247° |
| 2026-05-04 19:21 | 49.23524 | 2.77031 | 10945 ft | 301 kts | 247° |
| 2026-05-04 19:21 | 49.22714 | 2.74080 | 10943 ft | 300 kts | 246° |
| 2026-05-04 19:21 | 49.21904 | 2.71141 | 10948 ft | 300 kts | 246° |
| 2026-05-04 19:21 | 49.21091 | 2.68191 | 10944 ft | 301 kts | 246° |
| 2026-05-04 19:22 | 49.20281 | 2.65255 | 10949 ft | 301 kts | 246° |
| 2026-05-04 19:22 | 49.19468 | 2.62304 | 10946 ft | 301 kts | 246° |
| 2026-05-04 19:22 | 49.18655 | 2.59352 | 10947 ft | 301 kts | 248° |
| 2026-05-04 19:22 | 49.18107 | 2.56265 | 10942 ft | 302 kts | 263° |